createdAt,value
2023-01-19T00:02:48.269Z,99.01
2023-01-19T00:05:51.578Z,99.10
2023-01-19T00:08:54.582Z,98.88
2023-01-19T00:11:57.438Z,99.46
2023-01-19T00:15:00.256Z,99.14
2023-01-19T00:18:03.135Z,99.79
2023-01-19T00:21:06.028Z,100.00
2023-01-19T00:24:10.299Z,99.65
2023-01-19T00:27:13.015Z,99.68
2023-01-19T00:30:16.667Z,99.60
2023-01-19T00:33:19.452Z,99.69
2023-01-19T00:36:22.331Z,99.92
2023-01-19T00:39:25.123Z,100.00
2023-01-19T00:42:46.091Z,100.00
2023-01-19T00:45:49.018Z,100.00
2023-01-19T00:48:51.868Z,99.86
2023-01-19T00:51:54.915Z,100.00
2023-01-19T00:54:57.853Z,100.00
2023-01-19T00:58:00.682Z,100.00
2023-01-19T01:01:04.918Z,100.00
2023-01-19T01:04:07.946Z,100.00
2023-01-19T01:07:10.714Z,100.00
2023-01-19T01:10:18.451Z,100.00
2023-01-19T01:13:23.652Z,100.00
2023-01-19T01:16:28.321Z,100.00
2023-01-19T01:19:31.838Z,99.65
2023-01-19T01:22:34.611Z,99.53
2023-01-19T01:25:38.785Z,100.00
2023-01-19T01:28:41.639Z,99.85
2023-01-19T01:31:44.544Z,100.00
2023-01-19T01:34:47.292Z,99.84
2023-01-19T01:37:50.036Z,99.90
2023-01-19T01:40:52.999Z,100.00
2023-01-19T01:44:01.935Z,99.51
2023-01-19T01:47:04.989Z,99.68
2023-01-19T01:50:16.655Z,99.99
2023-01-19T01:53:19.673Z,100.00
2023-01-19T01:56:28.916Z,99.92
2023-01-19T01:59:39.299Z,99.89
2023-01-19T02:02:51.625Z,100.00
2023-01-19T02:05:59.492Z,99.48
2023-01-19T02:09:29.721Z,99.31
2023-01-19T02:12:51.514Z,98.93
2023-01-19T02:15:58.567Z,98.13
2023-01-19T02:19:01.465Z,98.42
2023-01-19T02:22:07.355Z,97.98
2023-01-19T02:25:10.453Z,98.62
2023-01-19T02:28:14.032Z,98.31
2023-01-19T02:31:17.982Z,97.82
2023-01-19T02:34:21.737Z,97.60
2023-01-19T02:37:25.470Z,97.62
2023-01-19T02:40:28.758Z,97.83
2023-01-19T02:43:33.362Z,97.66
2023-01-19T02:46:36.930Z,97.29
2023-01-19T02:49:39.863Z,96.61
2023-01-19T02:52:42.609Z,97.00
2023-01-19T02:55:54.187Z,96.97
2023-01-19T02:59:23.585Z,96.92
2023-01-19T03:02:53.819Z,96.28
2023-01-19T03:06:25.768Z,96.76
2023-01-19T03:09:47.978Z,96.28
2023-01-19T03:13:11.225Z,95.89
2023-01-19T03:16:44.430Z,96.61
2023-01-19T03:19:49.761Z,96.32
2023-01-19T03:23:00.848Z,95.81
2023-01-19T03:26:06.686Z,96.15
2023-01-19T03:29:13.909Z,95.63
2023-01-19T03:32:21.049Z,95.43
2023-01-19T03:35:26.526Z,95.95
2023-01-19T03:38:35.256Z,95.78
2023-01-19T03:41:39.937Z,96.27
2023-01-19T03:44:45.531Z,96.85
2023-01-19T03:47:49.198Z,96.75
2023-01-19T03:50:53.319Z,96.29
2023-01-19T03:53:56.098Z,96.50
2023-01-19T03:56:58.946Z,96.38
2023-01-19T04:00:01.827Z,96.82
2023-01-19T04:03:17.209Z,97.30
2023-01-19T04:06:21.838Z,96.61
2023-01-19T04:09:25.864Z,96.80
2023-01-19T04:12:28.819Z,96.96
2023-01-19T04:15:32.545Z,96.70
2023-01-19T04:18:36.030Z,96.12
2023-01-19T04:21:39.216Z,96.55
2023-01-19T04:24:42.002Z,96.43
2023-01-19T04:27:44.791Z,96.31
2023-01-19T04:30:51.051Z,96.86
2023-01-19T04:33:53.852Z,97.26
2023-01-19T04:36:56.648Z,96.41
2023-01-19T04:39:59.572Z,96.58
2023-01-19T04:43:02.794Z,96.54
2023-01-19T04:46:05.982Z,96.66
2023-01-19T04:49:10.353Z,96.72
2023-01-19T04:52:13.135Z,97.13
2023-01-19T04:55:16.213Z,97.05
2023-01-19T04:58:19.197Z,97.16
2023-01-19T05:01:22.576Z,96.59
2023-01-19T05:04:25.979Z,97.41
2023-01-19T05:07:28.802Z,97.43
2023-01-19T05:10:31.701Z,97.09
2023-01-19T05:13:34.620Z,97.51
2023-01-19T05:16:37.614Z,97.35
2023-01-19T05:19:40.412Z,97.44
2023-01-19T05:22:43.832Z,97.55
2023-01-19T05:25:47.033Z,97.20
2023-01-19T05:28:50.457Z,97.00
2023-01-19T05:31:53.538Z,97.55
2023-01-19T05:34:56.344Z,97.29
2023-01-19T05:37:59.108Z,96.92
2023-01-19T05:41:02.097Z,96.60
2023-01-19T05:44:05.075Z,97.71
2023-01-19T05:47:07.858Z,96.97
2023-01-19T05:50:11.208Z,96.58
2023-01-19T05:53:13.985Z,96.66
2023-01-19T05:56:16.818Z,97.11
2023-01-19T05:59:24.262Z,96.70
2023-01-19T06:02:30.277Z,96.86
2023-01-19T06:05:33.282Z,96.70
2023-01-19T06:08:36.722Z,96.23
2023-01-19T06:11:39.535Z,96.02
2023-01-19T06:14:42.347Z,95.88
2023-01-19T06:17:45.163Z,95.87
2023-01-19T06:20:47.895Z,95.77
2023-01-19T06:23:50.640Z,95.84
2023-01-19T06:26:53.847Z,93.91
2023-01-19T06:29:56.919Z,93.98
2023-01-19T06:33:00.111Z,94.64
2023-01-19T06:36:03.928Z,95.34
2023-01-19T06:39:06.852Z,94.73
2023-01-19T06:42:10.275Z,95.37
2023-01-19T06:45:13.010Z,95.14
2023-01-19T06:48:15.961Z,95.83
2023-01-19T06:51:18.851Z,96.42
2023-01-19T06:54:22.965Z,96.04
2023-01-19T06:57:26.299Z,95.47
2023-01-19T07:00:29.936Z,95.11
2023-01-19T07:03:34.913Z,94.70
2023-01-19T07:06:37.868Z,95.31
2023-01-19T07:09:43.118Z,96.05
2023-01-19T07:12:47.814Z,94.41
2023-01-19T07:15:53.597Z,93.85
2023-01-19T07:18:56.495Z,93.95
2023-01-19T07:21:59.698Z,93.78
2023-01-19T07:25:02.787Z,93.78
2023-01-19T07:28:07.347Z,93.78
2023-01-19T07:31:11.519Z,93.24
2023-01-19T07:34:15.581Z,93.28
2023-01-19T07:37:18.465Z,93.80
2023-01-19T07:40:23.328Z,93.71
2023-01-19T07:43:27.239Z,93.13
2023-01-19T07:46:30.179Z,93.20
2023-01-19T07:49:35.644Z,93.58
2023-01-19T07:52:38.570Z,93.48
2023-01-19T07:55:41.385Z,94.19
2023-01-19T07:58:44.352Z,94.12
2023-01-19T08:01:47.373Z,93.72
2023-01-19T08:04:50.355Z,93.72
2023-01-19T08:07:54.205Z,93.57
2023-01-19T08:11:05.588Z,92.44
2023-01-19T08:14:11.125Z,92.39
2023-01-19T08:17:14.193Z,92.13
2023-01-19T08:20:17.295Z,92.09
2023-01-19T08:23:20.356Z,92.71
2023-01-19T08:26:34.817Z,90.80
2023-01-19T08:29:37.957Z,91.74
2023-01-19T08:32:40.914Z,91.48
2023-01-19T08:35:47.699Z,92.73
2023-01-19T08:38:50.935Z,92.77
2023-01-19T08:41:54.090Z,92.35
2023-01-19T08:44:58.825Z,92.78
2023-01-19T08:48:02.488Z,92.58
2023-01-19T08:51:05.381Z,92.59
2023-01-19T08:54:08.303Z,91.93
2023-01-19T08:57:12.212Z,92.34
2023-01-19T09:00:15.527Z,92.21
2023-01-19T09:03:19.959Z,92.92
2023-01-19T09:06:25.813Z,92.37
2023-01-19T09:09:31.887Z,92.19
2023-01-19T09:12:35.004Z,92.47
2023-01-19T09:15:40.097Z,92.25
2023-01-19T09:18:46.225Z,92.97
2023-01-19T09:21:49.581Z,92.47
2023-01-19T09:24:53.008Z,92.60
2023-01-19T09:27:56.385Z,92.48
2023-01-19T09:31:00.182Z,92.23
2023-01-19T09:34:04.573Z,92.07
2023-01-19T09:37:33.428Z,91.61
2023-01-19T09:40:54.917Z,91.67
2023-01-19T09:44:00.390Z,91.63
2023-01-19T09:47:13.677Z,90.29
2023-01-19T09:50:25.150Z,90.88
2023-01-19T09:53:55.833Z,91.55
2023-01-19T09:56:59.951Z,91.26
2023-01-19T10:00:14.881Z,90.83
2023-01-19T10:03:20.872Z,89.86
2023-01-19T10:06:24.305Z,90.81
2023-01-19T10:09:37.757Z,90.84
2023-01-19T10:13:14.663Z,90.00
2023-01-19T10:16:32.552Z,90.84
2023-01-19T10:19:42.299Z,90.75
2023-01-19T10:22:49.355Z,91.75
2023-01-19T10:25:52.600Z,91.85
2023-01-19T10:29:03.334Z,90.99
2023-01-19T10:32:28.346Z,91.22
2023-01-19T10:35:31.398Z,90.25
2023-01-19T10:38:35.475Z,90.33
2023-01-19T10:41:47.088Z,90.18
2023-01-19T10:44:50.740Z,90.30
2023-01-19T10:47:55.446Z,89.00
2023-01-19T10:51:04.908Z,89.21
2023-01-19T10:54:13.711Z,89.41
2023-01-19T10:57:28.731Z,88.42
2023-01-19T11:00:40.995Z,89.09
2023-01-19T11:03:46.818Z,89.36
2023-01-19T11:06:49.803Z,89.10
2023-01-19T11:10:23.985Z,88.05
2023-01-19T11:13:27.149Z,88.75
2023-01-19T11:16:35.225Z,89.30
2023-01-19T11:19:38.090Z,89.51
2023-01-19T11:22:41.089Z,88.50
2023-01-19T11:25:47.682Z,88.18
2023-01-19T11:28:54.885Z,88.30
2023-01-19T11:32:10.619Z,88.58
2023-01-19T11:35:37.245Z,88.66
2023-01-19T11:38:46.031Z,88.34
2023-01-19T11:41:52.309Z,87.51
2023-01-19T11:44:58.232Z,87.72
2023-01-19T11:48:04.880Z,88.28
2023-01-19T11:51:14.105Z,86.40
2023-01-19T11:54:28.655Z,85.41
2023-01-19T11:57:32.214Z,83.82
2023-01-19T12:01:03.048Z,81.91
2023-01-19T12:04:26.304Z,81.34
2023-01-19T12:07:33.146Z,83.85
2023-01-19T12:10:41.880Z,84.83
2023-01-19T12:13:46.810Z,86.84
2023-01-19T12:16:53.181Z,86.43
2023-01-19T12:20:32.061Z,86.76
2023-01-19T12:23:47.077Z,85.95
2023-01-19T12:26:54.596Z,86.39
2023-01-19T12:29:57.925Z,87.32
2023-01-19T12:33:29.770Z,88.05
2023-01-19T12:36:36.792Z,85.76
2023-01-19T12:39:49.036Z,86.25
2023-01-19T12:43:05.508Z,84.28
2023-01-19T12:46:29.430Z,84.18
2023-01-19T12:49:32.338Z,83.95
2023-01-19T12:52:51.733Z,83.76
2023-01-19T12:56:01.954Z,84.92
2023-01-19T12:59:06.581Z,83.64
2023-01-19T13:02:18.665Z,82.53
2023-01-19T13:05:32.519Z,82.93
2023-01-19T13:08:54.724Z,81.61
2023-01-19T13:12:23.446Z,82.49
2023-01-19T13:15:38.408Z,81.29
2023-01-19T13:19:13.080Z,81.55
2023-01-19T13:22:51.403Z,82.03
2023-01-19T13:26:02.828Z,80.68
2023-01-19T13:29:11.201Z,82.04
2023-01-19T13:32:18.956Z,81.91
2023-01-19T13:35:23.092Z,81.87
2023-01-19T13:38:29.418Z,83.12
2023-01-19T13:41:38.379Z,82.81
2023-01-19T13:44:47.276Z,82.03
2023-01-19T13:47:51.639Z,84.07
2023-01-19T13:51:06.717Z,83.10
2023-01-19T13:54:16.640Z,82.66
2023-01-19T13:57:26.591Z,82.79
2023-01-19T14:00:31.157Z,82.98
2023-01-19T14:03:34.952Z,83.78
2023-01-19T14:06:47.642Z,83.20
2023-01-19T14:10:11.744Z,84.46
2023-01-19T14:13:20.758Z,84.20
2023-01-19T14:16:25.276Z,84.19
2023-01-19T14:19:28.826Z,83.31
2023-01-19T14:22:43.894Z,84.24
2023-01-19T14:25:46.911Z,84.84
2023-01-19T14:28:49.802Z,84.46
2023-01-19T14:32:01.873Z,84.47
2023-01-19T14:35:05.856Z,83.79
2023-01-19T14:38:14.440Z,83.49
2023-01-19T14:41:24.661Z,83.58
2023-01-19T14:44:35.511Z,83.62
2023-01-19T14:47:43.300Z,84.25
2023-01-19T14:51:02.516Z,83.96
2023-01-19T14:54:06.023Z,84.04
2023-01-19T14:57:13.995Z,84.22
2023-01-19T15:00:20.972Z,84.64
2023-01-19T15:03:38.587Z,84.77
2023-01-19T15:06:46.075Z,84.31
2023-01-19T15:09:49.156Z,84.58
2023-01-19T15:12:54.535Z,84.20
2023-01-19T15:16:23.329Z,84.38
2023-01-19T15:19:26.095Z,84.51
2023-01-19T15:22:44.766Z,84.17
2023-01-19T15:25:47.784Z,83.99
2023-01-19T15:28:50.813Z,84.58
2023-01-19T15:31:53.937Z,84.39
2023-01-19T15:34:56.904Z,84.64
2023-01-19T15:38:01.795Z,84.37
2023-01-19T15:41:04.623Z,84.33
2023-01-19T15:44:10.864Z,85.05
2023-01-19T15:47:13.605Z,84.60
2023-01-19T15:50:16.775Z,84.55
2023-01-19T15:53:24.031Z,84.85
2023-01-19T15:56:30.289Z,84.66
2023-01-19T15:59:33.157Z,85.98
2023-01-19T16:02:37.221Z,86.01
2023-01-19T16:05:43.799Z,86.16
2023-01-19T16:08:46.683Z,85.96
2023-01-19T16:11:49.494Z,87.73
2023-01-19T16:14:52.311Z,86.17
2023-01-19T16:17:55.102Z,86.62
2023-01-19T16:20:57.924Z,86.36
2023-01-19T16:24:01.048Z,85.99
2023-01-19T16:27:04.270Z,86.67
2023-01-19T16:30:07.970Z,86.45
2023-01-19T16:33:11.824Z,86.92
2023-01-19T16:36:25.410Z,87.57
2023-01-19T16:39:28.555Z,88.00
2023-01-19T16:42:31.449Z,88.72
2023-01-19T16:45:34.394Z,88.08
2023-01-19T16:48:37.424Z,87.81
2023-01-19T16:51:40.874Z,87.93
2023-01-19T16:54:43.902Z,88.59
2023-01-19T16:57:46.672Z,87.47
2023-01-19T17:00:50.023Z,87.27
2023-01-19T17:03:53.282Z,86.26
2023-01-19T17:06:56.283Z,87.23
2023-01-19T17:09:59.163Z,87.07
2023-01-19T17:13:02.028Z,87.04
2023-01-19T17:16:06.422Z,86.31
2023-01-19T17:19:14.445Z,86.06
2023-01-19T17:22:17.453Z,86.04
2023-01-19T17:25:20.333Z,86.33
2023-01-19T17:28:28.373Z,86.04
2023-01-19T17:31:32.489Z,86.17
2023-01-19T17:34:35.574Z,86.38
2023-01-19T17:37:38.576Z,86.31
2023-01-19T17:40:42.202Z,86.43
2023-01-19T17:43:47.142Z,85.66
2023-01-19T17:46:50.103Z,86.34
2023-01-19T17:49:53.010Z,85.57
2023-01-19T17:52:55.966Z,85.57
2023-01-19T17:56:09.728Z,85.69
2023-01-19T17:59:12.969Z,85.66
2023-01-19T18:02:16.283Z,86.33
2023-01-19T18:05:21.006Z,85.24
2023-01-19T18:08:24.160Z,85.46
2023-01-19T18:11:28.148Z,86.53
2023-01-19T18:14:31.166Z,86.26
2023-01-19T18:17:34.106Z,86.47
2023-01-19T18:20:40.033Z,86.47
2023-01-19T18:23:46.234Z,86.53
2023-01-19T18:26:49.090Z,86.47
2023-01-19T18:29:52.267Z,86.56
2023-01-19T18:32:55.321Z,87.04
2023-01-19T18:35:58.401Z,86.32
2023-01-19T18:39:02.033Z,86.48
2023-01-19T18:42:05.328Z,87.26
2023-01-19T18:45:09.032Z,87.38
2023-01-19T18:48:12.400Z,86.80
2023-01-19T18:51:17.165Z,86.08
2023-01-19T18:54:20.603Z,87.07
2023-01-19T18:57:23.650Z,87.56
2023-01-19T19:00:26.727Z,87.28
2023-01-19T19:03:30.092Z,88.37
2023-01-19T19:06:34.314Z,88.37
2023-01-19T19:09:37.444Z,89.60
2023-01-19T19:12:40.762Z,90.71
2023-01-19T19:15:44.620Z,91.09
2023-01-19T19:18:50.662Z,90.89
2023-01-19T19:21:53.837Z,90.57
2023-01-19T19:24:56.840Z,90.79
2023-01-19T19:27:59.914Z,91.49
2023-01-19T19:31:23.123Z,92.23
2023-01-19T19:34:26.327Z,92.12
2023-01-19T19:37:30.396Z,93.15
2023-01-19T19:40:33.483Z,93.56
2023-01-19T19:43:37.566Z,94.34
2023-01-19T19:46:41.763Z,94.05
2023-01-19T19:49:45.232Z,93.63
2023-01-19T19:52:48.883Z,93.35
2023-01-19T19:56:00.373Z,92.86
2023-01-19T19:59:03.785Z,91.90
2023-01-19T20:02:07.125Z,91.26
2023-01-19T20:05:10.374Z,91.18
2023-01-19T20:08:14.465Z,89.89
2023-01-19T20:11:28.452Z,89.31
2023-01-19T20:14:31.258Z,89.55
2023-01-19T20:17:34.470Z,89.98
2023-01-19T20:20:38.521Z,90.62
2023-01-19T20:23:41.765Z,91.13
2023-01-19T20:26:47.877Z,90.45
2023-01-19T20:29:58.053Z,89.92
2023-01-19T20:33:02.118Z,89.58
2023-01-19T20:36:05.495Z,87.89
2023-01-19T20:39:11.243Z,88.86
2023-01-19T20:42:16.636Z,88.82
2023-01-19T20:45:20.860Z,88.00
2023-01-19T20:48:23.958Z,88.98
2023-01-19T20:51:27.271Z,88.89
2023-01-19T20:54:30.675Z,88.45
2023-01-19T20:57:33.837Z,87.18
2023-01-19T21:00:36.842Z,88.28
2023-01-19T21:03:40.218Z,88.60
2023-01-19T21:06:43.682Z,89.01
2023-01-19T21:09:46.538Z,88.86
2023-01-19T21:12:50.721Z,89.44
2023-01-19T21:15:53.962Z,89.32
2023-01-19T21:18:57.048Z,89.30
2023-01-19T21:22:00.179Z,88.09
2023-01-19T21:25:03.325Z,87.42
2023-01-19T21:28:06.398Z,88.06
2023-01-19T21:31:14.358Z,89.38
2023-01-19T21:34:17.716Z,89.17
2023-01-19T21:37:20.561Z,89.20
2023-01-19T21:40:23.461Z,88.39
2023-01-19T21:43:26.832Z,87.70
2023-01-19T21:46:32.310Z,88.70
2023-01-19T21:49:35.661Z,88.53
2023-01-19T21:52:39.359Z,89.28
2023-01-19T21:55:47.395Z,89.96
2023-01-19T21:58:50.531Z,90.65
2023-01-19T22:01:55.040Z,90.24
2023-01-19T22:04:57.983Z,90.65
2023-01-19T22:08:00.730Z,90.91
2023-01-19T22:11:09.102Z,91.14
2023-01-19T22:14:11.913Z,91.04
2023-01-19T22:17:15.008Z,89.47
2023-01-19T22:20:18.054Z,88.60
2023-01-19T22:23:20.868Z,88.62
2023-01-19T22:26:24.534Z,87.91
2023-01-19T22:29:27.634Z,87.83
2023-01-19T22:32:31.770Z,87.14
2023-01-19T22:35:34.573Z,86.75
2023-01-19T22:38:39.872Z,86.17
2023-01-19T22:41:45.038Z,86.59
2023-01-19T22:44:47.789Z,85.77
2023-01-19T22:47:50.588Z,85.62
2023-01-19T22:50:57.086Z,85.90
2023-01-19T22:54:00.209Z,86.30
2023-01-19T22:57:03.137Z,84.83
2023-01-19T23:00:08.838Z,85.22
2023-01-19T23:03:11.758Z,85.24
2023-01-19T23:06:17.926Z,84.99
2023-01-19T23:09:21.074Z,84.32
2023-01-19T23:12:24.115Z,84.42
2023-01-19T23:15:26.881Z,84.26
2023-01-19T23:18:30.680Z,84.19
2023-01-19T23:21:34.026Z,83.03
2023-01-19T23:24:36.882Z,83.46
2023-01-19T23:27:39.652Z,83.54
2023-01-19T23:30:42.605Z,83.23
2023-01-19T23:33:45.615Z,83.11
2023-01-19T23:36:48.416Z,82.71
2023-01-19T23:39:52.385Z,82.80
2023-01-19T23:42:55.337Z,82.34
2023-01-19T23:46:06.674Z,81.30
2023-01-19T23:49:09.776Z,82.39
2023-01-19T23:52:12.658Z,82.19
2023-01-19T23:55:16.877Z,82.33
2023-01-19T23:58:19.684Z,81.90
